CheckWX is a tool to help pilots better visualize weather data.  It is not intended as a substitute for an official pre-flight weather briefing.

21:08:43 UTC

KBIJ METAR
Early County Airport
Blakely, Georgia, USA
Current

34 mins ago

KBIJ 182035Z AUTO 00000KT 10SM OVC049 13/07 A3018 RMK AO2
Observed
Feb-18 @ 20:35 UTC
Visibility
10 SM
Flight Rules
VFR
Cloud Levels
  • Overcast at 4,900' AGL
Temperature
13°C / 55°F
Dewpoint
C / 45°F
Humidity
67%
Altimeter
30.18" Hg
Pressure
1022.02 hPa
Previous

54 mins ago

KBIJ 182015Z AUTO 02004KT 10SM BKN049 OVC055 13/07 A3018 RMK AO2
Observed
Feb-18 @ 20:15 UTC
Wind
  • 020° at 4 KTS
Visibility
10 SM
Flight Rules
VFR
Cloud Levels
  • Broken at 4,900' AGL
  • Overcast at 5,500' AGL
Temperature
13°C / 55°F
Dewpoint
C / 45°F
Humidity
67%
Altimeter
30.18" Hg
Pressure
1022.02 hPa
Previous

2 hours ago

KBIJ 181935Z AUTO 35003KT 10SM OVC044 13/07 A3019 RMK AO2
Observed
Feb-18 @ 19:35 UTC
Wind
  • 350° at 3 KTS
Visibility
10 SM
Flight Rules
VFR
Cloud Levels
  • Overcast at 4,400' AGL
Temperature
13°C / 55°F
Dewpoint
C / 45°F
Humidity
67%
Altimeter
30.19" Hg
Pressure
1022.32 hPa